createdAt,value
2022-08-17T00:00:01.519Z,74.13
2022-08-17T00:01:00.627Z,74.03
2022-08-17T00:02:24.131Z,74.33
2022-08-17T00:03:01.479Z,74.13
2022-08-17T00:04:00.429Z,74.13
2022-08-17T00:05:00.435Z,73.63
2022-08-17T00:06:00.716Z,73.53
2022-08-17T00:07:00.377Z,73.57
2022-08-17T00:08:00.404Z,73.63
2022-08-17T00:09:00.527Z,73.77
2022-08-17T00:10:00.412Z,73.97
2022-08-17T00:11:00.432Z,73.97
2022-08-17T00:12:40.576Z,73.86
2022-08-17T00:13:01.463Z,73.77
2022-08-17T00:14:00.299Z,73.86
2022-08-17T00:15:00.292Z,74.07
2022-08-17T00:16:00.570Z,74.47
2022-08-17T00:17:00.352Z,74.67
2022-08-17T00:18:00.269Z,74.97
2022-08-17T00:19:07.499Z,74.47
2022-08-17T00:20:01.223Z,74.47
2022-08-17T00:21:00.258Z,74.47
2022-08-17T00:22:31.671Z,74.47
2022-08-17T00:23:01.322Z,74.77
2022-08-17T00:24:00.177Z,74.77
2022-08-17T00:25:00.196Z,74.97
2022-08-17T00:26:00.122Z,74.97
2022-08-17T00:27:00.239Z,74.97
2022-08-17T00:28:00.139Z,75.07
2022-08-17T00:29:00.144Z,75.17
2022-08-17T00:30:00.147Z,75.57
2022-08-17T00:31:00.042Z,75.87
2022-08-17T00:32:00.120Z,76.28
2022-08-17T00:33:23.483Z,76.17
2022-08-17T00:34:01.013Z,76.17
2022-08-17T00:34:59.993Z,76.47
2022-08-17T00:36:04.092Z,76.67
2022-08-17T00:37:00.005Z,76.78
2022-08-17T00:38:08.113Z,76.61
2022-08-17T00:39:00.999Z,76.71
2022-08-17T00:40:00.023Z,76.61
2022-08-17T00:41:00.192Z,77.11
2022-08-17T00:41:59.919Z,77.11
2022-08-17T00:42:59.914Z,76.51
2022-08-17T00:44:00.032Z,76.21
2022-08-17T00:44:59.948Z,76.01
2022-08-17T00:45:59.895Z,76.31
2022-08-17T00:46:59.847Z,77.01
2022-08-17T00:47:59.900Z,76.81
2022-08-17T00:48:59.843Z,77.01
2022-08-17T00:49:59.905Z,77.61
2022-08-17T00:50:59.809Z,77.11
2022-08-17T00:52:02.485Z,77.61
2022-08-17T00:53:00.780Z,77.72
2022-08-17T00:53:59.753Z,77.81
2022-08-17T00:54:59.871Z,77.85
2022-08-17T00:55:59.762Z,77.75
2022-08-17T00:56:59.803Z,77.55
2022-08-17T00:57:59.734Z,77.45
2022-08-17T00:58:59.719Z,77.35
2022-08-17T01:00:02.130Z,76.25
2022-08-17T01:00:59.726Z,76.15
2022-08-17T01:01:59.707Z,76.65
2022-08-17T01:02:59.787Z,76.25
2022-08-17T01:03:59.834Z,76.45
2022-08-17T01:04:59.627Z,76.51
2022-08-17T01:05:59.797Z,76.15
2022-08-17T01:06:59.574Z,75.91
2022-08-17T01:07:59.574Z,76.15
2022-08-17T01:08:59.630Z,76.34
2022-08-17T01:09:59.587Z,76.15
2022-08-17T01:11:01.738Z,76.25
2022-08-17T01:11:59.505Z,76.34
2022-08-17T01:12:59.504Z,76.45
2022-08-17T01:13:59.515Z,76.45
2022-08-17T01:14:59.487Z,76.45
2022-08-17T01:15:59.453Z,76.34
2022-08-17T01:16:59.460Z,76.58
2022-08-17T01:18:35.718Z,76.68
2022-08-17T01:19:00.435Z,76.68
2022-08-17T01:19:59.447Z,76.68
2022-08-17T01:20:59.494Z,76.78
2022-08-17T01:21:59.377Z,76.68
2022-08-17T01:22:59.523Z,76.68
2022-08-17T01:23:59.406Z,76.89
2022-08-17T01:24:59.347Z,76.89
2022-08-17T01:25:59.341Z,76.89
2022-08-17T01:26:59.357Z,77.19
2022-08-17T01:27:59.372Z,76.89
2022-08-17T01:28:59.273Z,76.78
2022-08-17T01:29:59.352Z,76.89
2022-08-17T01:31:36.242Z,76.89
2022-08-17T01:32:00.306Z,76.89
2022-08-17T01:32:59.219Z,76.48
2022-08-17T01:33:59.280Z,76.48
2022-08-17T01:34:59.249Z,76.28
2022-08-17T01:35:59.202Z,76.08
2022-08-17T01:37:00.671Z,76.18
2022-08-17T01:37:59.234Z,75.78
2022-08-17T01:38:59.158Z,75.48
2022-08-17T01:39:59.230Z,75.48
2022-08-17T01:40:59.275Z,75.38
2022-08-17T01:41:59.230Z,75.18
2022-08-17T01:42:59.106Z,75.78
2022-08-17T01:43:59.176Z,75.38
2022-08-17T01:44:59.162Z,75.27
2022-08-17T01:46:03.624Z,75.48
2022-08-17T01:47:00.044Z,75.48
2022-08-17T01:47:59.062Z,75.88
2022-08-17T01:48:59.230Z,76.08
2022-08-17T01:49:59.092Z,76.18
2022-08-17T01:50:59.052Z,75.98
2022-08-17T01:51:59.085Z,76.18
2022-08-17T01:52:59.016Z,75.88
2022-08-17T01:53:58.945Z,75.62
2022-08-17T01:54:58.988Z,75.51
2022-08-17T01:55:58.971Z,75.62
2022-08-17T01:56:58.892Z,75.82
2022-08-17T01:57:58.985Z,75.92
2022-08-17T01:58:58.900Z,76.02
2022-08-17T01:59:59.027Z,76.12
2022-08-17T02:01:00.114Z,76.12
2022-08-17T02:01:58.947Z,76.12
2022-08-17T02:02:58.998Z,76.72
2022-08-17T02:04:00.818Z,76.32
2022-08-17T02:04:58.822Z,76.12
2022-08-17T02:05:58.780Z,76.12
2022-08-17T02:07:20.215Z,76.62
2022-08-17T02:08:00.917Z,77.02
2022-08-17T02:09:02.893Z,77.32
2022-08-17T02:09:58.735Z,77.22
2022-08-17T02:10:58.743Z,77.06
2022-08-17T02:11:58.865Z,77.06
2022-08-17T02:12:58.741Z,77.06
2022-08-17T02:14:02.975Z,77.26
2022-08-17T02:14:59.683Z,77.76
2022-08-17T02:15:58.657Z,77.56
2022-08-17T02:16:58.711Z,77.86
2022-08-17T02:17:58.635Z,77.86
2022-08-17T02:18:58.637Z,78.06
2022-08-17T02:19:58.600Z,77.86
2022-08-17T02:20:58.608Z,77.66
2022-08-17T02:21:58.743Z,78.06
2022-08-17T02:22:58.593Z,77.76
2022-08-17T02:23:58.547Z,77.96
2022-08-17T02:25:02.196Z,78.16
2022-08-17T02:25:58.532Z,78.16
2022-08-17T02:26:58.509Z,78.27
2022-08-17T02:27:58.568Z,77.96
2022-08-17T02:28:58.473Z,77.96
2022-08-17T02:29:58.503Z,77.96
2022-08-17T02:31:02.506Z,77.76
2022-08-17T02:31:58.451Z,78.36
2022-08-17T02:32:58.448Z,78.56
2022-08-17T02:34:03.612Z,78.66
2022-08-17T02:34:59.533Z,78.56
2022-08-17T02:35:58.426Z,78.27
2022-08-17T02:36:58.380Z,78.10
2022-08-17T02:37:58.430Z,78.00
2022-08-17T02:38:58.348Z,78.20
2022-08-17T02:39:58.359Z,78.40
2022-08-17T02:40:58.486Z,78.40
2022-08-17T02:41:58.312Z,78.90
2022-08-17T02:42:58.307Z,79.10
2022-08-17T02:43:58.382Z,79.41
2022-08-17T02:44:58.283Z,79.10
2022-08-17T02:45:58.252Z,78.60
2022-08-17T02:46:58.410Z,78.70
2022-08-17T02:47:58.218Z,79.00
2022-08-17T02:48:58.243Z,79.21
2022-08-17T02:49:58.236Z,79.10
2022-08-17T02:50:58.198Z,79.61
2022-08-17T02:51:58.164Z,80.01
2022-08-17T02:53:02.046Z,79.91
2022-08-17T02:54:38.810Z,79.71
2022-08-17T02:54:59.155Z,79.41
2022-08-17T02:55:58.147Z,78.80
2022-08-17T02:56:58.149Z,79.35
2022-08-17T02:57:58.099Z,79.50
2022-08-17T02:58:58.082Z,79.50
2022-08-17T02:59:58.069Z,79.24
2022-08-17T03:00:58.061Z,79.21
2022-08-17T03:01:58.133Z,78.90
2022-08-17T03:02:58.050Z,78.60
2022-08-17T03:03:58.019Z,78.50
2022-08-17T03:04:58.040Z,78.40
2022-08-17T03:05:57.973Z,78.30
2022-08-17T03:06:57.971Z,78.30
2022-08-17T03:07:58.002Z,78.60
2022-08-17T03:08:57.985Z,78.90
2022-08-17T03:09:57.920Z,78.80
2022-08-17T03:10:57.940Z,78.80
2022-08-17T03:11:57.949Z,79.00
2022-08-17T03:12:57.911Z,78.90
2022-08-17T03:13:57.893Z,78.90
2022-08-17T03:14:57.926Z,79.00
2022-08-17T03:15:57.873Z,79.10
2022-08-17T03:16:57.879Z,79.10
2022-08-17T03:17:57.837Z,79.30
2022-08-17T03:18:57.823Z,79.10
2022-08-17T03:19:57.824Z,78.70
2022-08-17T03:20:57.808Z,78.40
2022-08-17T03:21:57.798Z,78.10
2022-08-17T03:23:01.691Z,78.20
2022-08-17T03:23:58.731Z,78.30
2022-08-17T03:24:57.739Z,78.30
2022-08-17T03:25:57.744Z,78.40
2022-08-17T03:26:57.702Z,78.60
2022-08-17T03:27:57.711Z,78.60
2022-08-17T03:28:57.731Z,78.80
2022-08-17T03:29:57.671Z,78.80
2022-08-17T03:30:57.654Z,79.00
2022-08-17T03:31:57.676Z,78.90
2022-08-17T03:32:57.621Z,79.10
2022-08-17T03:33:57.620Z,79.50
2022-08-17T03:34:57.620Z,79.71
2022-08-17T03:35:57.570Z,79.71
2022-08-17T03:36:57.569Z,79.64
2022-08-17T03:38:00.818Z,79.71
2022-08-17T03:38:57.576Z,79.71
2022-08-17T03:39:57.648Z,79.50
2022-08-17T03:40:59.900Z,79.30
2022-08-17T03:41:57.515Z,79.30
2022-08-17T03:42:57.491Z,79.30
2022-08-17T03:43:57.525Z,79.44
2022-08-17T03:44:57.862Z,79.14
2022-08-17T03:45:57.461Z,79.24
2022-08-17T03:46:57.481Z,79.35
2022-08-17T03:47:57.431Z,79.54
2022-08-17T03:48:57.423Z,79.94
2022-08-17T03:49:57.411Z,80.01
2022-08-17T03:50:57.398Z,79.71
2022-08-17T03:51:57.372Z,79.61
2022-08-17T03:52:57.533Z,79.54
2022-08-17T03:53:57.381Z,79.30
2022-08-17T03:54:57.342Z,79.21
2022-08-17T03:55:57.322Z,79.00
2022-08-17T03:56:57.312Z,78.80
2022-08-17T03:57:57.283Z,78.80
2022-08-17T03:58:57.289Z,79.00
2022-08-17T03:59:57.263Z,79.00
2022-08-17T04:00:57.330Z,78.90
2022-08-17T04:01:57.233Z,78.90
2022-08-17T04:02:57.254Z,78.90
2022-08-17T04:03:57.938Z,78.70
2022-08-17T04:04:57.212Z,78.80
2022-08-17T04:05:57.210Z,78.90
2022-08-17T04:06:57.183Z,78.80
2022-08-17T04:07:57.152Z,79.00
2022-08-17T04:08:57.160Z,79.10
2022-08-17T04:09:57.132Z,79.00
2022-08-17T04:10:57.114Z,79.30
2022-08-17T04:11:57.093Z,79.61
2022-08-17T04:12:57.121Z,79.30
2022-08-17T04:13:57.152Z,79.24
2022-08-17T04:14:57.053Z,79.14
2022-08-17T04:15:57.044Z,79.14
2022-08-17T04:16:57.035Z,78.84
2022-08-17T04:17:57.042Z,78.74
2022-08-17T04:18:57.081Z,78.44
2022-08-17T04:19:57.027Z,78.74
2022-08-17T04:20:57.081Z,79.24
2022-08-17T04:21:56.980Z,79.14
2022-08-17T04:22:56.952Z,79.14
2022-08-17T04:23:56.959Z,79.14
2022-08-17T04:24:56.955Z,79.35
2022-08-17T04:25:56.955Z,79.54
2022-08-17T04:26:56.904Z,79.54
2022-08-17T04:27:56.904Z,79.74
2022-08-17T04:28:56.868Z,79.64
2022-08-17T04:29:56.903Z,79.64
2022-08-17T04:30:56.979Z,79.74
2022-08-17T04:31:56.927Z,79.79
2022-08-17T04:33:10.938Z,79.99
2022-08-17T04:33:57.819Z,80.39
2022-08-17T04:34:56.816Z,80.99
2022-08-17T04:35:56.839Z,79.99
2022-08-17T04:36:56.855Z,79.68
2022-08-17T04:37:56.785Z,79.38
2022-08-17T04:38:58.312Z,79.08
2022-08-17T04:40:00.709Z,79.08
2022-08-17T04:40:57.712Z,79.28
2022-08-17T04:41:56.718Z,79.48
2022-08-17T04:42:59.966Z,79.68
2022-08-17T04:43:56.677Z,79.79
2022-08-17T04:44:56.676Z,80.02
2022-08-17T04:45:57.247Z,80.22
2022-08-17T04:46:56.742Z,80.32
2022-08-17T04:47:56.633Z,80.02
2022-08-17T04:48:56.675Z,80.12
2022-08-17T04:49:56.642Z,80.22
2022-08-17T04:50:56.609Z,79.82
2022-08-17T04:52:00.042Z,79.62
2022-08-17T04:52:57.863Z,79.42
2022-08-17T04:53:56.545Z,79.52
2022-08-17T04:54:56.615Z,79.38
2022-08-17T04:55:56.560Z,78.98
2022-08-17T04:56:56.498Z,78.64
2022-08-17T04:57:56.495Z,78.78
2022-08-17T04:58:56.522Z,78.88
2022-08-17T04:59:56.497Z,79.08
2022-08-17T05:00:56.541Z,78.84
2022-08-17T05:01:56.493Z,78.54
2022-08-17T05:02:56.587Z,78.84
2022-08-17T05:03:56.492Z,79.14
2022-08-17T05:04:56.390Z,80.45
2022-08-17T05:05:56.418Z,81.15
2022-08-17T05:06:56.429Z,80.31
2022-08-17T05:07:56.362Z,78.73
2022-08-17T05:08:56.350Z,77.19
2022-08-17T05:09:56.332Z,74.94
2022-08-17T05:10:56.314Z,73.27
2022-08-17T05:11:56.437Z,72.23
2022-08-17T05:12:56.310Z,69.86
2022-08-17T05:13:56.276Z,68.59
2022-08-17T05:14:56.310Z,68.19
2022-08-17T05:15:56.296Z,68.49
2022-08-17T05:16:56.272Z,68.99
2022-08-17T05:17:56.268Z,68.06
2022-08-17T05:18:56.246Z,67.03
2022-08-17T05:19:56.198Z,65.70
2022-08-17T05:20:56.168Z,66.16
2022-08-17T05:21:56.184Z,67.99
2022-08-17T05:22:56.167Z,68.49
2022-08-17T05:23:56.885Z,67.86
2022-08-17T05:24:56.167Z,67.72
2022-08-17T05:25:56.136Z,66.96
2022-08-17T05:26:56.119Z,67.16
2022-08-17T05:27:56.151Z,67.26
2022-08-17T05:28:57.045Z,67.59
2022-08-17T05:29:56.106Z,67.66
2022-08-17T05:30:56.082Z,66.83
2022-08-17T05:31:56.095Z,66.00
2022-08-17T05:32:56.030Z,65.26
2022-08-17T05:33:56.093Z,64.54
2022-08-17T05:34:56.042Z,63.91
2022-08-17T05:35:56.023Z,62.23
2022-08-17T05:36:56.031Z,60.68
2022-08-17T05:37:56.745Z,58.90
2022-08-17T05:38:56.023Z,57.45
2022-08-17T05:39:56.092Z,56.43
2022-08-17T05:40:55.987Z,55.74
2022-08-17T05:41:55.983Z,56.46
2022-08-17T05:42:55.911Z,57.08
2022-08-17T05:43:56.653Z,57.83
2022-08-17T05:44:55.944Z,59.45
2022-08-17T05:45:56.446Z,59.35
2022-08-17T05:46:55.889Z,58.40
2022-08-17T05:47:55.892Z,57.25
2022-08-17T05:48:55.852Z,56.23
2022-08-17T05:49:55.844Z,55.32
2022-08-17T05:50:55.986Z,54.47
2022-08-17T05:51:55.802Z,53.33
2022-08-17T05:52:55.797Z,52.09
2022-08-17T05:53:55.794Z,50.98
2022-08-17T05:54:55.768Z,50.76
2022-08-17T05:55:55.744Z,51.28
2022-08-17T05:56:55.736Z,50.76
2022-08-17T05:57:56.125Z,50.24
2022-08-17T05:58:55.695Z,49.62
2022-08-17T05:59:55.698Z,49.52
2022-08-17T06:00:55.746Z,49.84
2022-08-17T06:01:55.663Z,50.16
2022-08-17T06:02:55.663Z,50.66
2022-08-17T06:03:55.686Z,50.48
2022-08-17T06:04:55.662Z,50.68
2022-08-17T06:05:55.629Z,50.68
2022-08-17T06:06:55.613Z,54.00
2022-08-17T06:07:55.702Z,57.31
2022-08-17T06:08:55.579Z,58.65
2022-08-17T06:09:55.696Z,59.98
2022-08-17T06:10:55.557Z,60.47
2022-08-17T06:11:55.558Z,58.70
2022-08-17T06:12:55.569Z,57.68
2022-08-17T06:13:55.563Z,57.18
2022-08-17T06:14:55.518Z,57.38
2022-08-17T06:16:33.497Z,58.30
2022-08-17T06:16:56.517Z,58.30
2022-08-17T06:17:55.596Z,58.17
2022-08-17T06:18:55.469Z,57.55
2022-08-17T06:19:55.530Z,57.15
2022-08-17T06:20:55.462Z,56.23
2022-08-17T06:21:55.470Z,56.34
2022-08-17T06:22:55.581Z,55.19
2022-08-17T06:23:55.436Z,53.72
2022-08-17T06:24:55.381Z,52.71
2022-08-17T06:25:55.398Z,51.67
2022-08-17T06:26:55.406Z,51.05
2022-08-17T06:27:55.466Z,50.54
2022-08-17T06:28:55.385Z,50.34
2022-08-17T06:29:55.341Z,50.66
2022-08-17T06:30:59.271Z,51.28
2022-08-17T06:31:56.325Z,51.79
2022-08-17T06:32:55.297Z,51.70
2022-08-17T06:33:55.281Z,51.70
2022-08-17T06:34:55.309Z,51.30
2022-08-17T06:35:55.286Z,51.40
2022-08-17T06:36:55.283Z,51.20
2022-08-17T06:37:55.348Z,51.40
2022-08-17T06:38:55.323Z,51.40
2022-08-17T06:39:55.313Z,51.40
2022-08-17T06:40:55.192Z,51.30
2022-08-17T06:41:55.242Z,52.31
2022-08-17T06:43:06.534Z,53.55
2022-08-17T06:43:56.272Z,54.49
2022-08-17T06:44:55.212Z,55.21
2022-08-17T06:45:55.127Z,56.34
2022-08-17T06:46:55.143Z,56.95
2022-08-17T06:47:55.106Z,57.78
2022-08-17T06:48:55.127Z,58.00
2022-08-17T06:49:55.658Z,58.62
2022-08-17T06:50:55.087Z,58.83
2022-08-17T06:51:55.094Z,58.95
2022-08-17T06:52:55.059Z,58.95
2022-08-17T06:53:55.185Z,59.05
2022-08-17T06:54:55.018Z,59.35
2022-08-17T06:55:55.080Z,59.25
2022-08-17T06:56:55.493Z,59.25
2022-08-17T06:57:54.975Z,59.25
2022-08-17T06:58:55.068Z,58.86
2022-08-17T06:59:56.654Z,58.65
2022-08-17T07:00:58.614Z,58.53
2022-08-17T07:01:54.916Z,58.33
2022-08-17T07:02:54.915Z,58.23
2022-08-17T07:03:54.928Z,58.20
2022-08-17T07:04:54.907Z,57.81
2022-08-17T07:05:55.011Z,58.23
2022-08-17T07:06:55.027Z,58.13
2022-08-17T07:07:55.028Z,58.33
2022-08-17T07:08:54.856Z,58.00
2022-08-17T07:09:54.828Z,58.30
2022-08-17T07:10:54.898Z,59.39
2022-08-17T07:11:54.957Z,59.12
2022-08-17T07:12:54.778Z,58.62
2022-08-17T07:13:54.922Z,58.73
2022-08-17T07:14:54.755Z,58.90
2022-08-17T07:15:57.087Z,59.19
2022-08-17T07:16:54.738Z,58.10
2022-08-17T07:17:54.720Z,57.58
2022-08-17T07:18:54.911Z,57.18
2022-08-17T07:19:55.474Z,56.66
2022-08-17T07:20:54.695Z,56.78
2022-08-17T07:21:54.668Z,57.01
2022-08-17T07:22:59.723Z,57.70
2022-08-17T07:23:55.641Z,58.10
2022-08-17T07:24:54.654Z,57.81
2022-08-17T07:25:54.599Z,57.51
2022-08-17T07:26:54.651Z,56.98
2022-08-17T07:27:54.590Z,56.85
2022-08-17T07:28:54.581Z,56.16
2022-08-17T07:29:54.548Z,56.06
2022-08-17T07:30:54.590Z,56.36
2022-08-17T07:31:54.541Z,56.95
2022-08-17T07:32:54.539Z,58.27
2022-08-17T07:33:54.541Z,57.08
2022-08-17T07:34:54.511Z,57.01
2022-08-17T07:35:54.520Z,57.43
2022-08-17T07:36:54.490Z,57.64
2022-08-17T07:37:54.457Z,57.41
2022-08-17T07:38:54.539Z,59.17
2022-08-17T07:40:15.415Z,57.28
2022-08-17T07:40:55.411Z,56.56
2022-08-17T07:41:58.823Z,56.56
2022-08-17T07:42:55.381Z,56.66
2022-08-17T07:43:54.437Z,56.34
2022-08-17T07:44:54.429Z,55.83
2022-08-17T07:45:54.341Z,54.94
2022-08-17T07:46:54.349Z,54.32
2022-08-17T07:47:54.377Z,53.83
2022-08-17T07:48:54.311Z,54.22
2022-08-17T07:49:54.282Z,54.10
2022-08-17T07:50:54.334Z,54.00
2022-08-17T07:51:54.335Z,53.90
2022-08-17T07:52:54.298Z,53.38
2022-08-17T07:53:54.664Z,53.48
2022-08-17T07:54:55.388Z,53.28
2022-08-17T07:55:54.207Z,53.55
2022-08-17T07:56:54.265Z,53.55
2022-08-17T07:57:54.195Z,53.16
2022-08-17T07:58:54.203Z,51.97
2022-08-17T07:59:54.158Z,51.97
2022-08-17T08:00:54.245Z,51.57
2022-08-17T08:01:54.173Z,51.45
2022-08-17T08:02:54.195Z,51.65
2022-08-17T08:03:54.131Z,51.75
2022-08-17T08:05:02.095Z,51.87
2022-08-17T08:05:55.105Z,52.17
2022-08-17T08:06:54.085Z,52.49
2022-08-17T08:07:54.161Z,52.29
2022-08-17T08:08:54.047Z,52.39
2022-08-17T08:09:54.127Z,52.78
2022-08-17T08:10:54.056Z,52.69
2022-08-17T08:11:54.016Z,53.38
2022-08-17T08:12:54.036Z,53.58
2022-08-17T08:13:54.042Z,53.38
2022-08-17T08:14:53.994Z,54.27
2022-08-17T08:15:54.740Z,54.17
2022-08-17T08:16:54.089Z,53.97
2022-08-17T08:17:53.928Z,52.88
2022-08-17T08:18:56.824Z,53.16
2022-08-17T08:19:53.967Z,52.56
2022-08-17T08:20:54.196Z,51.99
2022-08-17T08:21:53.871Z,52.36
2022-08-17T08:22:54.066Z,51.97
2022-08-17T08:23:53.868Z,51.77
2022-08-17T08:24:53.908Z,52.26
2022-08-17T08:25:53.890Z,52.96
2022-08-17T08:26:53.824Z,52.64
2022-08-17T08:27:53.824Z,52.73
2022-08-17T08:28:53.999Z,52.64
2022-08-17T08:29:53.781Z,52.66
2022-08-17T08:30:53.828Z,52.83
2022-08-17T08:31:53.766Z,52.73
2022-08-17T08:32:53.774Z,52.64
2022-08-17T08:33:53.842Z,52.73
2022-08-17T08:35:02.022Z,52.73
2022-08-17T08:35:54.694Z,52.34
2022-08-17T08:37:02.149Z,52.66
2022-08-17T08:37:54.743Z,52.96
2022-08-17T08:38:53.714Z,53.06
2022-08-17T08:39:53.717Z,53.06
2022-08-17T08:40:53.703Z,53.03
2022-08-17T08:41:53.821Z,52.83
2022-08-17T08:42:53.632Z,52.83
2022-08-17T08:43:53.618Z,52.51
2022-08-17T08:45:01.121Z,52.22
2022-08-17T08:45:54.573Z,52.22
2022-08-17T08:46:53.542Z,52.04
2022-08-17T08:47:53.807Z,51.94
2022-08-17T08:48:57.855Z,52.24
2022-08-17T08:50:04.455Z,52.73
2022-08-17T08:50:54.515Z,52.54
2022-08-17T08:51:53.493Z,52.93
2022-08-17T08:52:53.592Z,53.63
2022-08-17T08:53:53.457Z,53.72
2022-08-17T08:54:53.454Z,52.93
2022-08-17T08:55:53.485Z,53.33
2022-08-17T08:57:21.869Z,53.42
2022-08-17T08:57:54.414Z,53.53
2022-08-17T08:58:53.453Z,53.20
2022-08-17T08:59:58.338Z,52.54
2022-08-17T09:00:54.470Z,53.03
2022-08-17T09:01:53.406Z,52.83
2022-08-17T09:02:53.363Z,52.14
2022-08-17T09:03:53.843Z,52.64
2022-08-17T09:05:13.499Z,52.93
2022-08-17T09:05:54.346Z,52.34
2022-08-17T09:06:53.335Z,52.76
2022-08-17T09:07:56.250Z,52.86
2022-08-17T09:08:53.282Z,52.96
2022-08-17T09:09:56.143Z,52.96
2022-08-17T09:10:54.307Z,51.75
2022-08-17T09:12:01.364Z,51.65
2022-08-17T09:12:54.410Z,51.94
2022-08-17T09:13:54.691Z,52.04
2022-08-17T09:14:54.061Z,52.14
2022-08-17T09:15:53.177Z,52.44
2022-08-17T09:16:53.219Z,52.14
2022-08-17T09:18:14.636Z,51.65
2022-08-17T09:19:00.794Z,52.44
2022-08-17T09:19:54.118Z,52.07
2022-08-17T09:20:53.243Z,52.56
2022-08-17T09:21:53.097Z,52.96
2022-08-17T09:22:53.089Z,52.36
2022-08-17T09:23:53.136Z,52.56
2022-08-17T09:24:53.098Z,52.56
2022-08-17T09:25:53.029Z,52.86
2022-08-17T09:26:53.107Z,52.76
2022-08-17T09:27:53.165Z,53.06
2022-08-17T09:28:53.089Z,53.03
2022-08-17T09:29:53.013Z,52.93
2022-08-17T09:30:53.026Z,52.17
2022-08-17T09:31:52.986Z,52.24
2022-08-17T09:32:53.044Z,52.54
2022-08-17T09:33:53.043Z,52.34
2022-08-17T09:34:52.929Z,51.65
2022-08-17T09:35:52.953Z,51.72
2022-08-17T09:36:52.933Z,51.72
2022-08-17T09:37:53.072Z,51.70
2022-08-17T09:38:52.983Z,53.47
2022-08-17T09:39:53.098Z,51.40
2022-08-17T09:40:52.821Z,51.30
2022-08-17T09:41:52.843Z,50.81
2022-08-17T09:42:52.862Z,50.71
2022-08-17T09:43:52.966Z,50.51
2022-08-17T09:44:52.856Z,50.31
2022-08-17T09:45:52.928Z,50.09
2022-08-17T09:46:52.807Z,50.19
2022-08-17T09:47:53.025Z,50.38
2022-08-17T09:48:52.743Z,51.47
2022-08-17T09:49:52.762Z,52.78
2022-08-17T09:51:03.184Z,51.50
2022-08-17T09:51:53.751Z,51.70
2022-08-17T09:52:52.668Z,51.23
2022-08-17T09:53:52.684Z,51.20
2022-08-17T09:54:52.647Z,51.00
2022-08-17T09:55:52.669Z,51.70
2022-08-17T09:57:06.016Z,50.90
2022-08-17T09:57:53.685Z,50.81
2022-08-17T09:58:52.686Z,51.10
2022-08-17T09:59:52.594Z,50.53
2022-08-17T10:00:52.619Z,50.63
2022-08-17T10:01:52.561Z,50.63
2022-08-17T10:02:52.583Z,50.83
2022-08-17T10:03:52.641Z,51.03
2022-08-17T10:04:52.535Z,51.03
2022-08-17T10:05:56.897Z,51.32
2022-08-17T10:06:52.493Z,51.23
2022-08-17T10:07:57.319Z,51.03
2022-08-17T10:08:52.709Z,51.23
2022-08-17T10:09:52.515Z,52.91
2022-08-17T10:10:56.454Z,53.30
2022-08-17T10:11:52.456Z,54.10
2022-08-17T10:12:53.145Z,52.54
2022-08-17T10:13:59.455Z,51.54
2022-08-17T10:14:53.269Z,53.82
2022-08-17T10:15:52.440Z,53.03
2022-08-17T10:16:52.365Z,52.76
2022-08-17T10:17:52.415Z,53.55
2022-08-17T10:18:52.336Z,53.58
2022-08-17T10:19:52.317Z,53.78
2022-08-17T10:20:52.320Z,54.07
2022-08-17T10:22:00.630Z,54.07
2022-08-17T10:22:55.015Z,53.97
2022-08-17T10:23:52.287Z,53.88
2022-08-17T10:25:21.453Z,54.17
2022-08-17T10:25:55.662Z,54.47
2022-08-17T10:26:56.864Z,55.26
2022-08-17T10:27:53.255Z,56.05
2022-08-17T10:28:52.239Z,57.64
2022-08-17T10:29:52.208Z,59.94
2022-08-17T10:31:01.430Z,64.01
2022-08-17T10:31:53.233Z,62.75
2022-08-17T10:32:52.205Z,61.89
2022-08-17T10:33:52.145Z,60.40
2022-08-17T10:34:52.160Z,59.91
2022-08-17T10:35:52.135Z,60.30
2022-08-17T10:36:53.133Z,60.50
2022-08-17T10:37:52.319Z,61.79
2022-08-17T10:38:52.075Z,64.86
2022-08-17T10:39:59.292Z,63.48
2022-08-17T10:40:52.100Z,62.98
2022-08-17T10:41:52.077Z,63.37
2022-08-17T10:42:52.071Z,64.47
2022-08-17T10:43:58.895Z,61.62
2022-08-17T10:44:52.998Z,62.98
2022-08-17T10:46:10.510Z,63.87
2022-08-17T10:46:53.009Z,64.27
2022-08-17T10:47:55.360Z,61.39
2022-08-17T10:48:51.950Z,60.80
2022-08-17T10:49:51.971Z,61.79
2022-08-17T10:50:51.919Z,62.38
2022-08-17T10:51:51.938Z,61.19
2022-08-17T10:53:17.935Z,61.10
2022-08-17T10:53:52.913Z,61.69
2022-08-17T10:54:51.858Z,60.89
2022-08-17T10:56:01.562Z,61.10
2022-08-17T10:56:51.867Z,60.80
2022-08-17T10:57:51.984Z,60.80
2022-08-17T10:58:51.904Z,60.80
2022-08-17T10:59:51.846Z,60.50
2022-08-17T11:00:51.944Z,60.89
2022-08-17T11:01:51.924Z,60.00
2022-08-17T11:02:51.974Z,60.30
2022-08-17T11:03:51.782Z,60.80
2022-08-17T11:04:52.070Z,61.10
2022-08-17T11:05:51.735Z,61.10
2022-08-17T11:06:51.827Z,60.80
2022-08-17T11:07:51.806Z,60.20
2022-08-17T11:08:51.683Z,60.89
2022-08-17T11:09:51.934Z,60.20
2022-08-17T11:10:52.236Z,60.10
2022-08-17T11:11:51.656Z,60.30
2022-08-17T11:12:51.762Z,60.23
2022-08-17T11:13:51.598Z,61.02
2022-08-17T11:14:51.583Z,60.33
2022-08-17T11:15:51.629Z,59.83
2022-08-17T11:16:51.594Z,59.93
2022-08-17T11:17:51.595Z,59.63
2022-08-17T11:18:51.560Z,59.74
2022-08-17T11:19:51.539Z,59.63
2022-08-17T11:20:51.555Z,59.44
2022-08-17T11:21:51.529Z,59.04
2022-08-17T11:22:51.640Z,59.34
2022-08-17T11:23:51.494Z,59.04
2022-08-17T11:24:51.490Z,59.14
2022-08-17T11:25:51.445Z,59.04
2022-08-17T11:26:51.445Z,59.04
2022-08-17T11:27:51.463Z,59.04
2022-08-17T11:28:52.737Z,58.94
2022-08-17T11:29:56.832Z,59.14
2022-08-17T11:30:52.417Z,58.94
2022-08-17T11:31:51.407Z,59.11
2022-08-17T11:32:54.423Z,60.40
2022-08-17T11:33:51.409Z,62.48
2022-08-17T11:34:51.370Z,61.99
2022-08-17T11:35:51.325Z,61.69
2022-08-17T11:36:51.335Z,59.21
2022-08-17T11:37:51.264Z,59.61
2022-08-17T11:38:51.273Z,59.93
2022-08-17T11:39:51.351Z,60.43
2022-08-17T11:40:51.226Z,59.44
2022-08-17T11:41:51.246Z,60.63
2022-08-17T11:42:51.481Z,61.62
2022-08-17T11:43:51.199Z,62.24
2022-08-17T11:44:51.282Z,63.24
2022-08-17T11:45:51.194Z,64.06
2022-08-17T11:46:51.776Z,64.46
2022-08-17T11:48:16.100Z,65.48
2022-08-17T11:48:52.202Z,66.11
2022-08-17T11:49:51.134Z,65.75
2022-08-17T11:50:51.176Z,66.64
2022-08-17T11:51:51.090Z,67.47
2022-08-17T11:52:51.076Z,67.77
2022-08-17T11:53:59.818Z,68.37
2022-08-17T11:55:34.706Z,68.56
2022-08-17T11:55:52.057Z,68.79
2022-08-17T11:56:51.058Z,68.99
2022-08-17T11:58:35.769Z,69.09
2022-08-17T11:58:52.082Z,69.59
2022-08-17T11:59:51.063Z,69.59
2022-08-17T12:00:51.087Z,69.59
2022-08-17T12:01:50.970Z,69.36
2022-08-17T12:02:51.110Z,68.27
2022-08-17T12:03:55.510Z,67.27
2022-08-17T12:04:52.019Z,67.57
2022-08-17T12:05:50.940Z,67.67
2022-08-17T12:06:51.142Z,67.37
2022-08-17T12:07:51.128Z,67.27
2022-08-17T12:08:50.868Z,66.97
2022-08-17T12:09:50.870Z,66.44
2022-08-17T12:11:18.498Z,66.14
2022-08-17T12:11:55.575Z,65.35
2022-08-17T12:12:51.861Z,65.25
2022-08-17T12:13:50.808Z,65.35
2022-08-17T12:15:09.700Z,66.14
2022-08-17T12:15:52.027Z,66.87
2022-08-17T12:16:50.815Z,67.07
2022-08-17T12:17:50.996Z,66.87
2022-08-17T12:18:50.779Z,66.47
2022-08-17T12:19:50.795Z,66.77
2022-08-17T12:20:56.058Z,66.27
2022-08-17T12:21:51.935Z,66.24
2022-08-17T12:22:50.791Z,66.24
2022-08-17T12:23:51.690Z,66.64
2022-08-17T12:24:50.643Z,67.63
2022-08-17T12:25:50.680Z,71.28
2022-08-17T12:26:50.657Z,70.78
2022-08-17T12:28:06.605Z,69.29
2022-08-17T12:28:51.619Z,68.20
2022-08-17T12:29:50.619Z,66.71
2022-08-17T12:30:51.967Z,66.11
2022-08-17T12:31:50.562Z,66.61
2022-08-17T12:32:50.683Z,68.80
2022-08-17T12:33:50.581Z,68.50
2022-08-17T12:34:50.513Z,68.33
2022-08-17T12:35:50.727Z,67.40
2022-08-17T12:36:50.480Z,67.21
2022-08-17T12:37:50.764Z,66.61
2022-08-17T12:38:50.492Z,66.41
2022-08-17T12:39:50.593Z,68.57
2022-08-17T12:40:50.433Z,67.07
2022-08-17T12:41:50.494Z,65.98
2022-08-17T12:42:50.420Z,65.88
2022-08-17T12:43:50.403Z,66.28
2022-08-17T12:44:50.861Z,66.35
2022-08-17T12:45:50.406Z,65.75
2022-08-17T12:46:50.393Z,65.16
2022-08-17T12:47:50.492Z,64.66
2022-08-17T12:48:59.157Z,63.73
2022-08-17T12:49:51.446Z,63.24
2022-08-17T12:50:50.395Z,63.01
2022-08-17T12:51:50.273Z,63.01